CPA443 RCTP-VHHH
Flight info
| Callsign | CPA443 |
|---|---|
| Flight time | 1h 20m |
| Altitude | 34000 |
| Route | CHALI T3 MKG A1 ELATO V522 ABBEY |
| Aircraft | A21N/M-SDE2E3FGHIRWXY/LB1 |
Departure
| Time | 2026-05-07 08:28 |
|---|---|
| Airport | Taiwan Taoyuan International Airport (RCTP) |
Arrival
| Time | 2026-05-07 09:49 |
|---|---|
| Airport | Hong Kong International Airport (VHHH) |
| Time | Latitude | Longitude | Altitude | Speed | Heading |
|---|---|---|---|---|---|
| 2026-05-07 08:13 | 25.07725 | 121.22816 | 106 ft | 0 kts | 139° |
| 2026-05-07 08:20 | 25.07741 | 121.22801 | 106 ft | 4 kts | 139° |
| 2026-05-07 08:21 | 25.07761 | 121.22782 | 106 ft | 4 kts | 139° |
| 2026-05-07 08:21 | 25.07778 | 121.22766 | 106 ft | 4 kts | 142° |
| 2026-05-07 08:21 | 25.07800 | 121.22753 | 105 ft | 4 kts | 177° |
| 2026-05-07 08:21 | 25.07821 | 121.22761 | 105 ft | 3 kts | 229° |
| 2026-05-07 08:22 | 25.07835 | 121.22779 | 104 ft | 0 kts | 229° |
| 2026-05-07 08:24 | 25.07815 | 121.22753 | 106 ft | 12 kts | 229° |
| 2026-05-07 08:24 | 25.07730 | 121.22646 | 106 ft | 22 kts | 229° |
| 2026-05-07 08:24 | 25.07627 | 121.22515 | 106 ft | 23 kts | 229° |
| 2026-05-07 08:25 | 25.07520 | 121.22377 | 106 ft | 24 kts | 229° |
| 2026-05-07 08:25 | 25.07407 | 121.22231 | 106 ft | 26 kts | 229° |
| 2026-05-07 08:25 | 25.07289 | 121.22079 | 105 ft | 27 kts | 229° |
| 2026-05-07 08:25 | 25.07189 | 121.21952 | 106 ft | 13 kts | 229° |
| 2026-05-07 08:26 | 25.07146 | 121.21899 | 106 ft | 13 kts | 228° |
| 2026-05-07 08:26 | 25.07119 | 121.21792 | 106 ft | 18 kts | 316° |
| 2026-05-07 08:26 | 25.07220 | 121.21699 | 107 ft | 20 kts | 318° |
| 2026-05-07 08:27 | 25.07302 | 121.21636 | 107 ft | 14 kts | 9° |
| 2026-05-07 08:27 | 25.07354 | 121.21680 | 107 ft | 10 kts | 49° |
| 2026-05-07 08:27 | 25.07525 | 121.21894 | 106 ft | 73 kts | 48° |
| 2026-05-07 08:27 | 25.08001 | 121.22500 | 107 ft | 134 kts | 49° |
| 2026-05-07 08:28 | 25.08726 | 121.23426 | 123 ft | 179 kts | 48° |
| 2026-05-07 08:28 | 25.09512 | 121.24432 | 749 ft | 174 kts | 47° |
| 2026-05-07 08:28 | 25.10303 | 121.25466 | 1210 ft | 184 kts | 47° |
| 2026-05-07 08:28 | 25.11174 | 121.26570 | 1705 ft | 196 kts | 48° |
| 2026-05-07 08:29 | 25.12100 | 121.27746 | 2286 ft | 210 kts | 48° |
| 2026-05-07 08:29 | 25.13196 | 121.28894 | 2896 ft | 224 kts | 28° |
| 2026-05-07 08:29 | 25.14769 | 121.29295 | 3280 ft | 247 kts | 352° |
| 2026-05-07 08:29 | 25.16400 | 121.28595 | 3764 ft | 261 kts | 318° |
| 2026-05-07 08:30 | 25.17434 | 121.26974 | 4516 ft | 263 kts | 286° |
| 2026-05-07 08:30 | 25.17527 | 121.24990 | 5366 ft | 261 kts | 258° |
| 2026-05-07 08:30 | 25.17142 | 121.23028 | 6257 ft | 262 kts | 256° |
| 2026-05-07 08:30 | 25.16768 | 121.21045 | 7068 ft | 266 kts | 257° |
| 2026-05-07 08:31 | 25.16185 | 121.19107 | 7843 ft | 268 kts | 240° |
| 2026-05-07 08:31 | 25.15166 | 121.17376 | 8619 ft | 271 kts | 235° |
| 2026-05-07 08:31 | 25.14062 | 121.15669 | 9385 ft | 275 kts | 235° |
| 2026-05-07 08:31 | 25.12946 | 121.13936 | 10110 ft | 281 kts | 236° |
| 2026-05-07 08:32 | 25.11780 | 121.12115 | 10445 ft | 301 kts | 236° |
| 2026-05-07 08:32 | 25.10538 | 121.10156 | 10716 ft | 322 kts | 236° |
| 2026-05-07 08:32 | 25.09218 | 121.08064 | 10957 ft | 341 kts | 236° |
| 2026-05-07 08:32 | 25.07834 | 121.05876 | 11369 ft | 353 kts | 236° |
| 2026-05-07 08:33 | 25.06419 | 121.03639 | 11970 ft | 358 kts | 236° |
| 2026-05-07 08:33 | 25.04993 | 121.01378 | 12625 ft | 361 kts | 237° |
| 2026-05-07 08:33 | 25.03558 | 120.99095 | 13268 ft | 364 kts | 237° |
| 2026-05-07 08:33 | 25.02105 | 120.96790 | 13886 ft | 367 kts | 237° |
| 2026-05-07 08:34 | 25.00641 | 120.94478 | 14437 ft | 370 kts | 237° |
| 2026-05-07 08:34 | 24.99167 | 120.92145 | 14975 ft | 372 kts | 237° |
| 2026-05-07 08:34 | 24.97682 | 120.89795 | 15520 ft | 374 kts | 237° |
| 2026-05-07 08:34 | 24.96189 | 120.87431 | 16037 ft | 377 kts | 237° |
| 2026-05-07 08:35 | 24.94684 | 120.85049 | 16556 ft | 380 kts | 236° |
| 2026-05-07 08:35 | 24.93172 | 120.82654 | 17064 ft | 382 kts | 236° |
| 2026-05-07 08:35 | 24.91652 | 120.80244 | 17567 ft | 384 kts | 236° |
| 2026-05-07 08:35 | 24.90122 | 120.77819 | 18061 ft | 387 kts | 236° |
| 2026-05-07 08:36 | 24.88579 | 120.75378 | 18492 ft | 390 kts | 236° |
| 2026-05-07 08:36 | 24.87023 | 120.72921 | 18897 ft | 392 kts | 236° |
| 2026-05-07 08:36 | 24.85456 | 120.70447 | 19293 ft | 395 kts | 236° |
| 2026-05-07 08:36 | 24.83880 | 120.67963 | 19693 ft | 398 kts | 236° |
| 2026-05-07 08:37 | 24.82283 | 120.65450 | 20104 ft | 401 kts | 236° |
| 2026-05-07 08:37 | 24.80681 | 120.62929 | 20501 ft | 404 kts | 236° |
| 2026-05-07 08:37 | 24.79085 | 120.60417 | 20889 ft | 407 kts | 236° |
| 2026-05-07 08:37 | 24.77435 | 120.57819 | 21309 ft | 410 kts | 236° |
| 2026-05-07 08:38 | 24.75804 | 120.55254 | 21725 ft | 412 kts | 236° |
| 2026-05-07 08:38 | 24.74118 | 120.52667 | 22154 ft | 416 kts | 233° |
| 2026-05-07 08:38 | 24.72175 | 120.50350 | 22570 ft | 421 kts | 224° |
| 2026-05-07 08:38 | 24.69814 | 120.48349 | 22969 ft | 425 kts | 217° |
| 2026-05-07 08:39 | 24.67361 | 120.46505 | 23358 ft | 428 kts | 216° |
| 2026-05-07 08:39 | 24.64886 | 120.44662 | 23693 ft | 431 kts | 216° |
| 2026-05-07 08:39 | 24.62403 | 120.42798 | 24009 ft | 433 kts | 217° |
| 2026-05-07 08:39 | 24.59915 | 120.40922 | 24322 ft | 435 kts | 217° |
| 2026-05-07 08:40 | 24.57414 | 120.39033 | 24637 ft | 437 kts | 217° |
| 2026-05-07 08:40 | 24.54938 | 120.37159 | 24948 ft | 439 kts | 217° |
| 2026-05-07 08:40 | 24.52417 | 120.35256 | 25267 ft | 441 kts | 217° |
| 2026-05-07 08:40 | 24.49887 | 120.33347 | 25583 ft | 443 kts | 217° |
| 2026-05-07 08:41 | 24.47345 | 120.31427 | 25891 ft | 445 kts | 217° |
| 2026-05-07 08:41 | 24.44794 | 120.29497 | 26186 ft | 446 kts | 217° |
| 2026-05-07 08:41 | 24.42253 | 120.27530 | 26475 ft | 448 kts | 218° |
| 2026-05-07 08:41 | 24.39709 | 120.25544 | 26763 ft | 450 kts | 218° |
| 2026-05-07 08:42 | 24.37151 | 120.23547 | 27067 ft | 452 kts | 218° |
| 2026-05-07 08:42 | 24.34584 | 120.21549 | 27357 ft | 454 kts | 218° |
| 2026-05-07 08:42 | 24.31998 | 120.19541 | 27627 ft | 456 kts | 218° |
| 2026-05-07 08:42 | 24.29409 | 120.17533 | 27899 ft | 457 kts | 218° |
| 2026-05-07 08:43 | 24.26812 | 120.15519 | 28248 ft | 457 kts | 218° |
| 2026-05-07 08:43 | 24.24222 | 120.13512 | 28626 ft | 456 kts | 218° |
| 2026-05-07 08:43 | 24.21635 | 120.11507 | 29004 ft | 455 kts | 218° |
| 2026-05-07 08:43 | 24.19055 | 120.09508 | 29369 ft | 454 kts | 218° |
| 2026-05-07 08:44 | 24.16476 | 120.07513 | 29733 ft | 454 kts | 218° |
| 2026-05-07 08:44 | 24.13897 | 120.05520 | 30100 ft | 453 kts | 218° |
| 2026-05-07 08:44 | 24.12197 | 120.04207 | 30291 ft | 452 kts | 218° |
| 2026-05-07 08:44 | 24.08752 | 120.01545 | 30669 ft | 452 kts | 218° |
| 2026-05-07 08:45 | 24.06183 | 119.99561 | 30955 ft | 452 kts | 218° |
| 2026-05-07 08:45 | 24.03608 | 119.97573 | 31230 ft | 452 kts | 218° |
| 2026-05-07 08:45 | 24.01907 | 119.96261 | 31399 ft | 453 kts | 218° |
| 2026-05-07 08:45 | 23.99331 | 119.94275 | 31683 ft | 453 kts | 218° |
| 2026-05-07 08:46 | 23.96760 | 119.92292 | 31957 ft | 453 kts | 218° |
| 2026-05-07 08:46 | 23.94183 | 119.90308 | 32226 ft | 453 kts | 219° |
| 2026-05-07 08:46 | 23.91603 | 119.88323 | 32484 ft | 453 kts | 219° |
| 2026-05-07 08:46 | 23.89027 | 119.86343 | 32747 ft | 453 kts | 219° |
| 2026-05-07 08:47 | 23.86447 | 119.84360 | 32995 ft | 453 kts | 219° |
| 2026-05-07 08:47 | 23.83872 | 119.82382 | 33238 ft | 453 kts | 219° |
| 2026-05-07 08:47 | 23.81290 | 119.80400 | 33468 ft | 454 kts | 219° |
| 2026-05-07 08:47 | 23.78705 | 119.78415 | 33706 ft | 454 kts | 219° |
| 2026-05-07 08:48 | 23.76122 | 119.76432 | 33904 ft | 455 kts | 219° |
| 2026-05-07 08:48 | 23.73532 | 119.74446 | 33949 ft | 455 kts | 219° |
| 2026-05-07 08:48 | 23.68345 | 119.70474 | 33932 ft | 455 kts | 219° |
| 2026-05-07 08:49 | 23.63163 | 119.66510 | 33921 ft | 456 kts | 219° |
| 2026-05-07 08:49 | 23.58501 | 119.61951 | 33915 ft | 447 kts | 237° |
| 2026-05-07 08:50 | 23.55174 | 119.56317 | 33922 ft | 445 kts | 242° |
| 2026-05-07 08:50 | 23.51885 | 119.50560 | 33916 ft | 445 kts | 241° |
| 2026-05-07 08:51 | 23.48581 | 119.44857 | 33915 ft | 445 kts | 241° |
| 2026-05-07 08:51 | 23.45289 | 119.39189 | 33910 ft | 445 kts | 241° |
| 2026-05-07 08:52 | 23.41982 | 119.33483 | 33905 ft | 446 kts | 241° |
| 2026-05-07 08:52 | 23.38666 | 119.27774 | 33897 ft | 446 kts | 241° |
| 2026-05-07 08:53 | 23.35338 | 119.22057 | 33904 ft | 446 kts | 240° |
| 2026-05-07 08:53 | 23.32011 | 119.16356 | 33907 ft | 446 kts | 240° |
| 2026-05-07 08:54 | 23.28683 | 119.10653 | 33902 ft | 446 kts | 240° |
| 2026-05-07 08:54 | 23.25369 | 119.04987 | 33910 ft | 446 kts | 240° |
| 2026-05-07 08:55 | 23.22033 | 118.99289 | 33911 ft | 449 kts | 240° |
| 2026-05-07 08:55 | 23.18636 | 118.93490 | 33917 ft | 459 kts | 240° |
| 2026-05-07 08:56 | 23.15178 | 118.87596 | 33915 ft | 465 kts | 240° |
| 2026-05-07 08:56 | 23.11692 | 118.81666 | 33911 ft | 465 kts | 240° |
| 2026-05-07 08:57 | 23.08213 | 118.75746 | 33911 ft | 465 kts | 240° |
| 2026-05-07 08:57 | 23.04725 | 118.69830 | 33914 ft | 465 kts | 240° |
| 2026-05-07 08:58 | 23.01234 | 118.63901 | 33910 ft | 465 kts | 240° |
| 2026-05-07 08:58 | 22.97744 | 118.57984 | 33908 ft | 467 kts | 240° |
| 2026-05-07 08:59 | 22.94267 | 118.52111 | 33909 ft | 465 kts | 240° |
| 2026-05-07 08:59 | 22.90755 | 118.46210 | 33911 ft | 465 kts | 240° |
| 2026-05-07 09:00 | 22.87236 | 118.40290 | 33910 ft | 465 kts | 240° |
| 2026-05-07 09:00 | 22.83719 | 118.34392 | 33911 ft | 466 kts | 240° |
| 2026-05-07 09:01 | 22.80186 | 118.28486 | 33912 ft | 466 kts | 240° |
| 2026-05-07 09:01 | 22.76661 | 118.22575 | 33912 ft | 467 kts | 240° |
| 2026-05-07 09:02 | 22.73127 | 118.16663 | 33907 ft | 467 kts | 240° |
| 2026-05-07 09:02 | 22.69592 | 118.10755 | 33904 ft | 467 kts | 240° |
| 2026-05-07 09:03 | 22.66065 | 118.04872 | 33908 ft | 468 kts | 240° |
| 2026-05-07 09:03 | 22.62514 | 117.98956 | 33922 ft | 468 kts | 240° |
| 2026-05-07 09:04 | 22.58981 | 117.93057 | 33912 ft | 469 kts | 240° |
| 2026-05-07 09:04 | 22.55475 | 117.87149 | 33904 ft | 467 kts | 240° |
| 2026-05-07 09:05 | 22.51954 | 117.81228 | 33903 ft | 467 kts | 240° |
| 2026-05-07 09:05 | 22.48431 | 117.75309 | 33911 ft | 467 kts | 240° |
| 2026-05-07 09:06 | 22.44901 | 117.69389 | 33904 ft | 467 kts | 240° |
| 2026-05-07 09:06 | 22.41380 | 117.63483 | 33918 ft | 467 kts | 240° |
| 2026-05-07 09:07 | 22.37859 | 117.57591 | 33906 ft | 467 kts | 240° |
| 2026-05-07 09:07 | 22.34487 | 117.51584 | 33896 ft | 464 kts | 248° |
| 2026-05-07 09:08 | 22.33485 | 117.48313 | 33896 ft | 462 kts | 260° |
| 2026-05-07 09:08 | 22.33140 | 117.44863 | 33907 ft | 460 kts | 270° |
| 2026-05-07 09:08 | 22.33067 | 117.37979 | 33911 ft | 459 kts | 271° |
| 2026-05-07 09:09 | 22.32974 | 117.31100 | 33905 ft | 458 kts | 270° |
| 2026-05-07 09:09 | 22.32857 | 117.24225 | 33912 ft | 458 kts | 270° |
| 2026-05-07 09:10 | 22.32728 | 117.17400 | 33914 ft | 457 kts | 270° |
| 2026-05-07 09:10 | 22.32595 | 117.10486 | 33908 ft | 457 kts | 270° |
| 2026-05-07 09:11 | 22.32467 | 117.03623 | 33907 ft | 458 kts | 270° |
| 2026-05-07 09:11 | 22.32319 | 116.96758 | 33907 ft | 458 kts | 270° |
| 2026-05-07 09:12 | 22.32177 | 116.89887 | 33913 ft | 457 kts | 270° |
| 2026-05-07 09:12 | 22.32036 | 116.83081 | 33904 ft | 457 kts | 270° |
| 2026-05-07 09:13 | 22.31890 | 116.76229 | 33915 ft | 456 kts | 270° |
| 2026-05-07 09:13 | 22.31736 | 116.69377 | 33899 ft | 455 kts | 270° |
| 2026-05-07 09:14 | 22.31583 | 116.62540 | 33903 ft | 455 kts | 270° |
| 2026-05-07 09:14 | 22.31430 | 116.55695 | 33897 ft | 457 kts | 270° |
| 2026-05-07 09:15 | 22.31278 | 116.48855 | 33906 ft | 455 kts | 270° |
| 2026-05-07 09:15 | 22.31113 | 116.42019 | 33907 ft | 456 kts | 270° |
| 2026-05-07 09:16 | 22.30949 | 116.35196 | 33902 ft | 454 kts | 270° |
| 2026-05-07 09:16 | 22.30784 | 116.28406 | 33902 ft | 451 kts | 271° |
| 2026-05-07 09:17 | 22.30617 | 116.21640 | 33902 ft | 450 kts | 271° |
| 2026-05-07 09:17 | 22.30438 | 116.14871 | 33572 ft | 453 kts | 271° |
| 2026-05-07 09:18 | 22.30350 | 116.11466 | 33285 ft | 454 kts | 270° |
| 2026-05-07 09:18 | 22.30259 | 116.08055 | 33021 ft | 455 kts | 270° |
| 2026-05-07 09:18 | 22.30169 | 116.04635 | 32770 ft | 455 kts | 270° |
| 2026-05-07 09:18 | 22.30081 | 116.01217 | 32523 ft | 456 kts | 270° |
| 2026-05-07 09:19 | 22.29992 | 115.97795 | 32276 ft | 457 kts | 270° |
| 2026-05-07 09:19 | 22.29900 | 115.94358 | 32031 ft | 458 kts | 270° |
| 2026-05-07 09:19 | 22.29810 | 115.90931 | 31503 ft | 457 kts | 270° |
| 2026-05-07 09:19 | 22.29724 | 115.87511 | 30942 ft | 452 kts | 270° |
| 2026-05-07 09:20 | 22.29636 | 115.84132 | 30182 ft | 450 kts | 269° |
| 2026-05-07 09:20 | 22.29546 | 115.80749 | 29334 ft | 449 kts | 269° |
| 2026-05-07 09:20 | 22.29458 | 115.77428 | 28961 ft | 436 kts | 269° |
| 2026-05-07 09:20 | 22.29369 | 115.74205 | 28619 ft | 425 kts | 269° |
| 2026-05-07 09:21 | 22.29284 | 115.71007 | 27685 ft | 428 kts | 269° |
| 2026-05-07 09:21 | 22.29201 | 115.67790 | 26907 ft | 428 kts | 269° |
| 2026-05-07 09:21 | 22.29115 | 115.64599 | 26282 ft | 423 kts | 269° |
| 2026-05-07 09:21 | 22.29030 | 115.61439 | 25702 ft | 419 kts | 269° |
| 2026-05-07 09:22 | 22.28945 | 115.58310 | 25157 ft | 415 kts | 269° |
| 2026-05-07 09:22 | 22.28861 | 115.55205 | 24614 ft | 413 kts | 268° |
| 2026-05-07 09:22 | 22.28774 | 115.52109 | 24049 ft | 411 kts | 268° |
| 2026-05-07 09:22 | 22.28689 | 115.49038 | 23479 ft | 408 kts | 268° |
| 2026-05-07 09:23 | 22.28602 | 115.45993 | 22826 ft | 404 kts | 268° |
| 2026-05-07 09:23 | 22.28519 | 115.42980 | 22225 ft | 399 kts | 268° |
| 2026-05-07 09:23 | 22.28436 | 115.40001 | 21635 ft | 394 kts | 268° |
| 2026-05-07 09:23 | 22.28351 | 115.37059 | 21052 ft | 390 kts | 268° |
| 2026-05-07 09:24 | 22.28266 | 115.34150 | 20504 ft | 386 kts | 268° |
| 2026-05-07 09:24 | 22.28181 | 115.31252 | 19975 ft | 385 kts | 268° |
| 2026-05-07 09:24 | 22.28095 | 115.28372 | 19457 ft | 383 kts | 268° |
| 2026-05-07 09:24 | 22.28007 | 115.25506 | 18965 ft | 381 kts | 268° |
| 2026-05-07 09:25 | 22.27918 | 115.22686 | 18492 ft | 380 kts | 268° |
| 2026-05-07 09:25 | 22.27830 | 115.19843 | 17979 ft | 377 kts | 268° |
| 2026-05-07 09:25 | 22.27743 | 115.17033 | 17460 ft | 371 kts | 268° |
| 2026-05-07 09:25 | 22.27657 | 115.14269 | 16944 ft | 365 kts | 268° |
| 2026-05-07 09:26 | 22.27570 | 115.11530 | 16450 ft | 365 kts | 268° |
| 2026-05-07 09:26 | 22.27482 | 115.08785 | 15970 ft | 365 kts | 268° |
| 2026-05-07 09:26 | 22.27397 | 115.06055 | 15518 ft | 364 kts | 268° |
| 2026-05-07 09:26 | 22.27312 | 115.03321 | 15079 ft | 363 kts | 268° |
| 2026-05-07 09:27 | 22.27225 | 115.00599 | 14600 ft | 363 kts | 268° |
| 2026-05-07 09:27 | 22.27135 | 114.97877 | 14129 ft | 363 kts | 268° |
| 2026-05-07 09:27 | 22.26959 | 114.92429 | 13181 ft | 362 kts | 268° |
| 2026-05-07 09:28 | 22.26870 | 114.89718 | 12708 ft | 362 kts | 268° |
| 2026-05-07 09:28 | 22.26780 | 114.87003 | 12236 ft | 361 kts | 268° |
| 2026-05-07 09:28 | 22.26689 | 114.84302 | 11787 ft | 360 kts | 268° |
| 2026-05-07 09:28 | 22.26598 | 114.81616 | 11341 ft | 354 kts | 268° |
| 2026-05-07 09:29 | 22.26435 | 114.78996 | 10978 ft | 346 kts | 260° |
| 2026-05-07 09:29 | 22.25614 | 114.76622 | 10760 ft | 333 kts | 240° |
| 2026-05-07 09:29 | 22.24359 | 114.74576 | 10603 ft | 321 kts | 236° |
| 2026-05-07 09:29 | 22.23105 | 114.72645 | 10463 ft | 308 kts | 236° |
| 2026-05-07 09:30 | 22.21904 | 114.70784 | 10336 ft | 296 kts | 236° |
| 2026-05-07 09:30 | 22.20759 | 114.68994 | 10206 ft | 284 kts | 236° |
| 2026-05-07 09:30 | 22.19656 | 114.67261 | 10091 ft | 276 kts | 236° |
| 2026-05-07 09:30 | 22.18587 | 114.65571 | 9965 ft | 269 kts | 237° |
| 2026-05-07 09:31 | 22.17548 | 114.63925 | 9848 ft | 261 kts | 237° |
| 2026-05-07 09:31 | 22.16538 | 114.62326 | 9721 ft | 262 kts | 236° |
| 2026-05-07 09:31 | 22.15513 | 114.60704 | 9585 ft | 261 kts | 236° |
| 2026-05-07 09:31 | 22.14494 | 114.59091 | 9448 ft | 261 kts | 236° |
| 2026-05-07 09:32 | 22.13472 | 114.57473 | 9304 ft | 260 kts | 237° |
| 2026-05-07 09:32 | 22.12783 | 114.56383 | 9228 ft | 260 kts | 236° |
| 2026-05-07 09:32 | 22.11517 | 114.54112 | 9067 ft | 278 kts | 251° |
| 2026-05-07 09:32 | 22.11194 | 114.52056 | 8940 ft | 280 kts | 268° |
| 2026-05-07 09:33 | 22.11193 | 114.50636 | 8869 ft | 280 kts | 270° |
| 2026-05-07 09:33 | 22.11226 | 114.48536 | 8750 ft | 280 kts | 270° |
| 2026-05-07 09:33 | 22.11246 | 114.46441 | 8629 ft | 279 kts | 270° |
| 2026-05-07 09:33 | 22.11253 | 114.43677 | 8472 ft | 278 kts | 269° |
| 2026-05-07 09:34 | 22.11251 | 114.42268 | 8387 ft | 278 kts | 269° |
| 2026-05-07 09:34 | 22.11242 | 114.40189 | 8263 ft | 277 kts | 269° |
| 2026-05-07 09:34 | 22.11229 | 114.38136 | 8144 ft | 277 kts | 269° |
| 2026-05-07 09:34 | 22.11216 | 114.36060 | 8032 ft | 277 kts | 269° |
| 2026-05-07 09:35 | 22.11203 | 114.33987 | 7902 ft | 276 kts | 269° |
| 2026-05-07 09:35 | 22.11192 | 114.31920 | 7789 ft | 275 kts | 269° |
| 2026-05-07 09:35 | 22.11178 | 114.29861 | 7667 ft | 275 kts | 269° |
| 2026-05-07 09:35 | 22.11164 | 114.27802 | 7545 ft | 275 kts | 269° |
| 2026-05-07 09:36 | 22.11148 | 114.25741 | 7426 ft | 274 kts | 269° |
| 2026-05-07 09:36 | 22.11132 | 114.23681 | 7309 ft | 274 kts | 269° |
| 2026-05-07 09:36 | 22.11116 | 114.21629 | 7193 ft | 274 kts | 269° |
| 2026-05-07 09:36 | 22.11100 | 114.19578 | 7074 ft | 273 kts | 269° |
| 2026-05-07 09:37 | 22.11083 | 114.17527 | 6954 ft | 274 kts | 269° |
| 2026-05-07 09:37 | 22.11067 | 114.15477 | 6837 ft | 273 kts | 269° |
| 2026-05-07 09:37 | 22.11047 | 114.13433 | 6720 ft | 272 kts | 269° |
| 2026-05-07 09:37 | 22.11027 | 114.11392 | 6606 ft | 272 kts | 269° |
| 2026-05-07 09:38 | 22.11010 | 114.09348 | 6487 ft | 273 kts | 269° |
| 2026-05-07 09:38 | 22.10994 | 114.07305 | 6371 ft | 272 kts | 269° |
| 2026-05-07 09:38 | 22.10974 | 114.05270 | 6254 ft | 272 kts | 269° |
| 2026-05-07 09:38 | 22.10956 | 114.03233 | 6139 ft | 271 kts | 269° |
| 2026-05-07 09:39 | 22.10936 | 114.01204 | 6014 ft | 271 kts | 269° |
| 2026-05-07 09:39 | 22.10918 | 113.99175 | 5895 ft | 271 kts | 269° |
| 2026-05-07 09:39 | 22.10899 | 113.97145 | 5762 ft | 271 kts | 269° |
| 2026-05-07 09:39 | 22.10880 | 113.95145 | 5651 ft | 269 kts | 269° |
| 2026-05-07 09:40 | 22.10859 | 113.93128 | 5523 ft | 269 kts | 269° |
| 2026-05-07 09:40 | 22.10838 | 113.91119 | 5405 ft | 268 kts | 269° |
| 2026-05-07 09:40 | 22.10817 | 113.89106 | 5288 ft | 268 kts | 269° |
| 2026-05-07 09:40 | 22.10800 | 113.87094 | 5125 ft | 268 kts | 269° |
| 2026-05-07 09:41 | 22.10779 | 113.85096 | 4883 ft | 265 kts | 269° |
| 2026-05-07 09:41 | 22.10755 | 113.83111 | 4593 ft | 265 kts | 269° |
| 2026-05-07 09:41 | 22.10732 | 113.81125 | 4286 ft | 265 kts | 268° |
| 2026-05-07 09:41 | 22.10809 | 113.79147 | 3976 ft | 265 kts | 280° |
| 2026-05-07 09:42 | 22.11582 | 113.77361 | 3656 ft | 265 kts | 310° |
| 2026-05-07 09:42 | 22.13042 | 113.76215 | 3473 ft | 258 kts | 333° |
| 2026-05-07 09:42 | 22.14653 | 113.75453 | 3395 ft | 247 kts | 336° |
| 2026-05-07 09:42 | 22.16190 | 113.74748 | 3442 ft | 231 kts | 335° |
| 2026-05-07 09:43 | 22.17603 | 113.74089 | 3438 ft | 211 kts | 335° |
| 2026-05-07 09:43 | 22.18893 | 113.73470 | 3394 ft | 198 kts | 334° |
| 2026-05-07 09:43 | 22.20145 | 113.72860 | 3434 ft | 198 kts | 334° |
| 2026-05-07 09:43 | 22.21397 | 113.72236 | 3412 ft | 198 kts | 333° |
| 2026-05-07 09:44 | 22.22649 | 113.71668 | 3215 ft | 193 kts | 340° |
| 2026-05-07 09:44 | 22.23984 | 113.71562 | 2786 ft | 197 kts | 16° |
| 2026-05-07 09:44 | 22.25082 | 113.72403 | 2393 ft | 196 kts | 50° |
| 2026-05-07 09:44 | 22.25993 | 113.73482 | 2109 ft | 193 kts | 48° |
| 2026-05-07 09:45 | 22.26955 | 113.74489 | 1762 ft | 192 kts | 46° |
| 2026-05-07 09:45 | 22.27904 | 113.75502 | 1525 ft | 189 kts | 55° |
| 2026-05-07 09:45 | 22.28475 | 113.76671 | 1480 ft | 165 kts | 72° |
| 2026-05-07 09:45 | 22.28823 | 113.77823 | 1485 ft | 160 kts | 74° |
| 2026-05-07 09:46 | 22.29187 | 113.78972 | 1491 ft | 161 kts | 74° |
| 2026-05-07 09:46 | 22.29550 | 113.80109 | 1515 ft | 157 kts | 75° |
| 2026-05-07 09:46 | 22.29883 | 113.81145 | 1379 ft | 142 kts | 74° |
| 2026-05-07 09:46 | 22.30201 | 113.82137 | 1200 ft | 141 kts | 75° |
| 2026-05-07 09:47 | 22.30525 | 113.83138 | 961 ft | 142 kts | 75° |
| 2026-05-07 09:47 | 22.30848 | 113.84139 | 830 ft | 141 kts | 75° |
| 2026-05-07 09:47 | 22.31168 | 113.85143 | 646 ft | 142 kts | 74° |
| 2026-05-07 09:47 | 22.31493 | 113.86157 | 460 ft | 145 kts | 71° |
| 2026-05-07 09:48 | 22.31831 | 113.87189 | 289 ft | 147 kts | 71° |
| 2026-05-07 09:48 | 22.32161 | 113.88234 | 109 ft | 147 kts | 70° |
| 2026-05-07 09:48 | 22.32488 | 113.89236 | 41 ft | 129 kts | 70° |
| 2026-05-07 09:48 | 22.32728 | 113.89978 | 39 ft | 80 kts | 71° |
| 2026-05-07 09:49 | 22.32845 | 113.90372 | 42 ft | 28 kts | 87° |
| 2026-05-07 09:49 | 22.32798 | 113.90550 | 42 ft | 24 kts | 120° |
| 2026-05-07 09:49 | 22.32709 | 113.90483 | 42 ft | 21 kts | 251° |
| 2026-05-07 09:49 | 22.32653 | 113.90358 | 43 ft | 16 kts | 185° |
| 2026-05-07 09:50 | 22.32543 | 113.90399 | 43 ft | 18 kts | 162° |
| 2026-05-07 09:50 | 22.32420 | 113.90444 | 42 ft | 19 kts | 161° |
| 2026-05-07 09:50 | 22.32289 | 113.90493 | 42 ft | 21 kts | 161° |
| 2026-05-07 09:50 | 22.32145 | 113.90548 | 42 ft | 22 kts | 160° |
| 2026-05-07 09:51 | 22.31995 | 113.90605 | 42 ft | 24 kts | 160° |
| 2026-05-07 09:51 | 22.31830 | 113.90667 | 43 ft | 26 kts | 161° |
| 2026-05-07 09:51 | 22.31657 | 113.90732 | 42 ft | 25 kts | 161° |
| 2026-05-07 09:51 | 22.31615 | 113.90846 | 42 ft | 20 kts | 70° |
| 2026-05-07 09:52 | 22.31663 | 113.90990 | 43 ft | 21 kts | 71° |
| 2026-05-07 09:52 | 22.31713 | 113.91146 | 42 ft | 23 kts | 71° |
| 2026-05-07 09:52 | 22.31767 | 113.91312 | 43 ft | 24 kts | 70° |
| 2026-05-07 09:52 | 22.31824 | 113.91490 | 42 ft | 26 kts | 71° |
| 2026-05-07 09:53 | 22.31882 | 113.91678 | 42 ft | 27 kts | 71° |
| 2026-05-07 09:53 | 22.31948 | 113.91877 | 43 ft | 29 kts | 70° |
| 2026-05-07 09:53 | 22.32017 | 113.92085 | 43 ft | 30 kts | 71° |
| 2026-05-07 09:53 | 22.32086 | 113.92301 | 41 ft | 28 kts | 70° |
| 2026-05-07 09:54 | 22.32153 | 113.92505 | 40 ft | 30 kts | 71° |
| 2026-05-07 09:54 | 22.32178 | 113.92685 | 42 ft | 15 kts | 156° |
| 2026-05-07 09:54 | 22.32076 | 113.92724 | 41 ft | 16 kts | 161° |
| 2026-05-07 09:54 | 22.31962 | 113.92766 | 42 ft | 18 kts | 161° |
| 2026-05-07 09:55 | 22.31858 | 113.92731 | 41 ft | 20 kts | 252° |
| 2026-05-07 09:55 | 22.31811 | 113.92583 | 42 ft | 22 kts | 251° |
| 2026-05-07 09:55 | 22.31759 | 113.92425 | 42 ft | 23 kts | 250° |
| 2026-05-07 09:55 | 22.31703 | 113.92255 | 42 ft | 25 kts | 250° |
| 2026-05-07 09:56 | 22.31647 | 113.92077 | 42 ft | 23 kts | 251° |
| 2026-05-07 09:56 | 22.31523 | 113.92056 | 42 ft | 22 kts | 160° |
| 2026-05-07 09:56 | 22.31371 | 113.92114 | 42 ft | 24 kts | 161° |
| 2026-05-07 09:56 | 22.31208 | 113.92173 | 42 ft | 25 kts | 161° |
| 2026-05-07 09:57 | 22.31035 | 113.92238 | 42 ft | 27 kts | 160° |
| 2026-05-07 09:57 | 22.30858 | 113.92307 | 42 ft | 27 kts | 161° |
| 2026-05-07 09:57 | 22.30740 | 113.92404 | 42 ft | 24 kts | 72° |
| 2026-05-07 09:57 | 22.30797 | 113.92573 | 42 ft | 25 kts | 70° |
| 2026-05-07 09:58 | 22.30881 | 113.92737 | 42 ft | 27 kts | 28° |
| 2026-05-07 09:58 | 22.31051 | 113.92825 | 42 ft | 25 kts | 25° |
| 2026-05-07 09:58 | 22.31178 | 113.92905 | 42 ft | 21 kts | 60° |
| 2026-05-07 09:58 | 22.31230 | 113.93057 | 39 ft | 22 kts | 71° |
| 2026-05-07 09:59 | 22.31284 | 113.93222 | 42 ft | 24 kts | 71° |
| 2026-05-07 09:59 | 22.31286 | 113.93338 | 42 ft | 13 kts | 79° |
| 2026-05-07 09:59 | 22.31313 | 113.93414 | 42 ft | 7 kts | 70° |
| 2026-05-07 09:59 | 22.31322 | 113.93442 | 42 ft | 1 kts | 70° |
| 2026-05-07 10:00 | 22.31323 | 113.93443 | 42 ft | 0 kts | 70° |